sensor_id;sensor_type;location;lat;lon;timestamp;P1;durP1;ratioP1;P2;durP2;ratioP2
19889;SDS011;10107;51.198;6.824;2022-10-16T00:03:54;1.70;;;1.27;;
19889;SDS011;10107;51.198;6.824;2022-10-16T00:07:58;2.33;;;1.50;;
19889;SDS011;10107;51.198;6.824;2022-10-16T00:12:00;1.07;;;0.97;;
19889;SDS011;10107;51.198;6.824;2022-10-16T00:16:04;1.73;;;1.40;;
19889;SDS011;10107;51.198;6.824;2022-10-16T00:20:07;2.63;;;1.85;;
19889;SDS011;10107;51.198;6.824;2022-10-16T00:24:11;2.30;;;1.67;;
19889;SDS011;10107;51.198;6.824;2022-10-16T00:28:14;3.83;;;1.70;;
19889;SDS011;10107;51.198;6.824;2022-10-16T00:32:16;2.42;;;1.73;;
19889;SDS011;10107;51.198;6.824;2022-10-16T00:36:20;2.45;;;1.70;;
19889;SDS011;10107;51.198;6.824;2022-10-16T00:40:24;2.95;;;1.70;;
19889;SDS011;10107;51.198;6.824;2022-10-16T00:44:46;2.22;;;1.27;;
19889;SDS011;10107;51.198;6.824;2022-10-16T00:48:50;2.00;;;1.80;;
19889;SDS011;10107;51.198;6.824;2022-10-16T00:52:56;3.15;;;1.88;;
19889;SDS011;10107;51.198;6.824;2022-10-16T00:57:01;2.40;;;1.23;;
19889;SDS011;10107;51.198;6.824;2022-10-16T01:01:05;2.28;;;1.45;;
19889;SDS011;10107;51.198;6.824;2022-10-16T01:05:07;2.05;;;1.40;;
19889;SDS011;10107;51.198;6.824;2022-10-16T01:09:11;2.88;;;1.63;;
19889;SDS011;10107;51.198;6.824;2022-10-16T01:13:21;3.25;;;1.80;;
19889;SDS011;10107;51.198;6.824;2022-10-16T01:17:28;3.53;;;1.80;;
19889;SDS011;10107;51.198;6.824;2022-10-16T01:21:35;2.83;;;1.70;;
19889;SDS011;10107;51.198;6.824;2022-10-16T01:25:47;5.70;;;2.05;;
19889;SDS011;10107;51.198;6.824;2022-10-16T01:30:02;4.78;;;1.80;;
19889;SDS011;10107;51.198;6.824;2022-10-16T01:34:11;4.53;;;1.95;;
19889;SDS011;10107;51.198;6.824;2022-10-16T01:38:19;2.03;;;1.67;;
19889;SDS011;10107;51.198;6.824;2022-10-16T01:42:27;2.92;;;1.58;;
19889;SDS011;10107;51.198;6.824;2022-10-16T01:46:33;1.60;;;1.50;;
19889;SDS011;10107;51.198;6.824;2022-10-16T01:50:38;1.48;;;1.20;;
19889;SDS011;10107;51.198;6.824;2022-10-16T01:54:43;2.50;;;1.70;;
19889;SDS011;10107;51.198;6.824;2022-10-16T01:58:49;2.97;;;1.77;;
19889;SDS011;10107;51.198;6.824;2022-10-16T02:02:55;4.05;;;1.75;;
19889;SDS011;10107;51.198;6.824;2022-10-16T02:07:02;2.38;;;2.13;;
19889;SDS011;10107;51.198;6.824;2022-10-16T02:11:04;2.15;;;1.95;;
19889;SDS011;10107;51.198;6.824;2022-10-16T02:15:06;2.20;;;2.00;;
19889;SDS011;10107;51.198;6.824;2022-10-16T02:19:10;4.05;;;2.05;;
19889;SDS011;10107;51.198;6.824;2022-10-16T02:23:14;2.47;;;1.77;;
19889;SDS011;10107;51.198;6.824;2022-10-16T02:27:22;3.25;;;2.00;;
19889;SDS011;10107;51.198;6.824;2022-10-16T02:31:29;1.92;;;1.80;;
19889;SDS011;10107;51.198;6.824;2022-10-16T02:35:37;3.15;;;2.00;;
19889;SDS011;10107;51.198;6.824;2022-10-16T02:39:39;2.38;;;2.00;;
19889;SDS011;10107;51.198;6.824;2022-10-16T02:43:42;2.80;;;1.90;;
19889;SDS011;10107;51.198;6.824;2022-10-16T02:47:44;2.53;;;1.90;;
19889;SDS011;10107;51.198;6.824;2022-10-16T02:51:47;1.88;;;1.52;;
19889;SDS011;10107;51.198;6.824;2022-10-16T02:55:50;2.28;;;1.80;;
19889;SDS011;10107;51.198;6.824;2022-10-16T02:59:52;2.25;;;1.40;;
19889;SDS011;10107;51.198;6.824;2022-10-16T03:03:53;2.90;;;1.77;;
19889;SDS011;10107;51.198;6.824;2022-10-16T03:07:56;1.85;;;1.60;;
19889;SDS011;10107;51.198;6.824;2022-10-16T03:12:00;1.83;;;1.60;;
19889;SDS011;10107;51.198;6.824;2022-10-16T03:16:02;2.00;;;1.40;;
19889;SDS011;10107;51.198;6.824;2022-10-16T03:20:04;2.20;;;1.35;;
19889;SDS011;10107;51.198;6.824;2022-10-16T03:24:08;1.95;;;1.60;;
19889;SDS011;10107;51.198;6.824;2022-10-16T03:28:10;0.93;;;0.93;;
19889;SDS011;10107;51.198;6.824;2022-10-16T03:32:11;1.40;;;1.30;;
19889;SDS011;10107;51.198;6.824;2022-10-16T03:36:13;1.40;;;1.30;;
19889;SDS011;10107;51.198;6.824;2022-10-16T03:40:16;1.90;;;1.33;;
19889;SDS011;10107;51.198;6.824;2022-10-16T03:44:18;2.17;;;1.45;;
19889;SDS011;10107;51.198;6.824;2022-10-16T03:48:20;2.47;;;1.20;;
19889;SDS011;10107;51.198;6.824;2022-10-16T03:52:22;1.80;;;1.20;;
19889;SDS011;10107;51.198;6.824;2022-10-16T03:56:25;1.45;;;1.33;;
19889;SDS011;10107;51.198;6.824;2022-10-16T04:00:27;1.50;;;1.30;;
19889;SDS011;10107;51.198;6.824;2022-10-16T04:04:29;1.40;;;1.30;;
19889;SDS011;10107;51.198;6.824;2022-10-16T04:08:31;2.40;;;1.38;;
19889;SDS011;10107;51.198;6.824;2022-10-16T04:12:36;1.25;;;1.15;;
19889;SDS011;10107;51.198;6.824;2022-10-16T04:16:38;1.73;;;1.30;;
19889;SDS011;10107;51.198;6.824;2022-10-16T04:20:40;2.55;;;1.40;;
19889;SDS011;10107;51.198;6.824;2022-10-16T04:24:42;1.65;;;1.50;;
19889;SDS011;10107;51.198;6.824;2022-10-16T04:28:45;1.50;;;1.40;;
19889;SDS011;10107;51.198;6.824;2022-10-16T04:32:47;1.55;;;1.45;;
19889;SDS011;10107;51.198;6.824;2022-10-16T04:36:50;1.40;;;1.17;;
19889;SDS011;10107;51.198;6.824;2022-10-16T04:40:52;1.98;;;1.40;;
19889;SDS011;10107;51.198;6.824;2022-10-16T04:44:55;1.30;;;1.20;;
19889;SDS011;10107;51.198;6.824;2022-10-16T04:48:57;0.97;;;0.97;;
19889;SDS011;10107;51.198;6.824;2022-10-16T04:52:59;1.33;;;1.23;;
19889;SDS011;10107;51.198;6.824;2022-10-16T04:57:00;1.35;;;1.10;;
19889;SDS011;10107;51.198;6.824;2022-10-16T05:01:04;1.35;;;1.25;;
19889;SDS011;10107;51.198;6.824;2022-10-16T05:05:06;1.75;;;1.27;;
19889;SDS011;10107;51.198;6.824;2022-10-16T05:09:08;1.77;;;1.23;;
19889;SDS011;10107;51.198;6.824;2022-10-16T05:13:10;2.05;;;1.40;;
19889;SDS011;10107;51.198;6.824;2022-10-16T05:17:14;2.08;;;1.42;;
19889;SDS011;10107;51.198;6.824;2022-10-16T05:21:16;1.87;;;1.50;;
19889;SDS011;10107;51.198;6.824;2022-10-16T05:25:17;1.60;;;1.50;;
19889;SDS011;10107;51.198;6.824;2022-10-16T05:29:19;1.52;;;1.38;;
19889;SDS011;10107;51.198;6.824;2022-10-16T05:33:23;1.73;;;1.40;;
19889;SDS011;10107;51.198;6.824;2022-10-16T05:37:27;1.42;;;1.33;;
19889;SDS011;10107;51.198;6.824;2022-10-16T05:41:29;1.40;;;1.30;;
19889;SDS011;10107;51.198;6.824;2022-10-16T05:45:31;1.50;;;1.20;;
19889;SDS011;10107;51.198;6.824;2022-10-16T05:49:34;2.38;;;1.60;;
19889;SDS011;10107;51.198;6.824;2022-10-16T05:53:37;2.93;;;1.50;;
19889;SDS011;10107;51.198;6.824;2022-10-16T06:01:41;2.17;;;1.30;;
19889;SDS011;10107;51.198;6.824;2022-10-16T06:05:44;1.30;;;1.15;;
19889;SDS011;10107;51.198;6.824;2022-10-16T06:09:47;3.13;;;1.30;;
19889;SDS011;10107;51.198;6.824;2022-10-16T06:13:49;1.33;;;0.98;;
19889;SDS011;10107;51.198;6.824;2022-10-16T06:17:51;2.17;;;1.33;;
19889;SDS011;10107;51.198;6.824;2022-10-16T06:21:54;1.45;;;1.35;;
19889;SDS011;10107;51.198;6.824;2022-10-16T06:26:03;1.95;;;1.50;;
19889;SDS011;10107;51.198;6.824;2022-10-16T06:30:06;3.00;;;1.40;;
19889;SDS011;10107;51.198;6.824;2022-10-16T06:34:09;1.65;;;1.40;;
19889;SDS011;10107;51.198;6.824;2022-10-16T06:38:13;1.80;;;1.38;;
19889;SDS011;10107;51.198;6.824;2022-10-16T06:42:14;1.47;;;1.07;;
19889;SDS011;10107;51.198;6.824;2022-10-16T06:46:18;1.95;;;1.65;;
19889;SDS011;10107;51.198;6.824;2022-10-16T06:50:21;3.92;;;1.40;;
19889;SDS011;10107;51.198;6.824;2022-10-16T06:54:25;2.25;;;1.33;;
19889;SDS011;10107;51.198;6.824;2022-10-16T06:58:26;1.98;;;1.10;;
19889;SDS011;10107;51.198;6.824;2022-10-16T07:02:28;3.55;;;1.55;;
19889;SDS011;10107;51.198;6.824;2022-10-16T07:06:31;1.80;;;1.40;;
19889;SDS011;10107;51.198;6.824;2022-10-16T07:10:35;1.50;;;1.40;;
19889;SDS011;10107;51.198;6.824;2022-10-16T07:14:37;1.65;;;1.50;;
19889;SDS011;10107;51.198;6.824;2022-10-16T07:18:38;1.67;;;1.50;;
19889;SDS011;10107;51.198;6.824;2022-10-16T07:26:45;1.58;;;1.48;;
19889;SDS011;10107;51.198;6.824;2022-10-16T07:30:47;3.03;;;1.35;;
19889;SDS011;10107;51.198;6.824;2022-10-16T07:34:49;2.03;;;1.30;;
19889;SDS011;10107;51.198;6.824;2022-10-16T07:38:51;1.38;;;1.10;;
19889;SDS011;10107;51.198;6.824;2022-10-16T07:42:54;1.13;;;1.02;;
19889;SDS011;10107;51.198;6.824;2022-10-16T07:46:55;1.23;;;1.13;;
19889;SDS011;10107;51.198;6.824;2022-10-16T07:50:57;1.80;;;1.13;;
19889;SDS011;10107;51.198;6.824;2022-10-16T07:55:00;1.58;;;1.00;;
19889;SDS011;10107;51.198;6.824;2022-10-16T07:59:03;3.03;;;1.10;;
19889;SDS011;10107;51.198;6.824;2022-10-16T08:03:04;1.08;;;1.02;;
19889;SDS011;10107;51.198;6.824;2022-10-16T08:07:06;1.90;;;1.05;;
19889;SDS011;10107;51.198;6.824;2022-10-16T08:11:09;1.37;;;1.10;;
19889;SDS011;10107;51.198;6.824;2022-10-16T08:15:12;1.85;;;1.38;;
19889;SDS011;10107;51.198;6.824;2022-10-16T08:19:14;2.17;;;1.10;;
19889;SDS011;10107;51.198;6.824;2022-10-16T08:23:16;2.55;;;1.30;;
19889;SDS011;10107;51.198;6.824;2022-10-16T08:27:18;1.67;;;1.17;;
19889;SDS011;10107;51.198;6.824;2022-10-16T08:31:21;2.15;;;1.30;;
19889;SDS011;10107;51.198;6.824;2022-10-16T08:35:23;2.75;;;1.20;;
19889;SDS011;10107;51.198;6.824;2022-10-16T08:39:25;1.88;;;1.20;;
19889;SDS011;10107;51.198;6.824;2022-10-16T08:43:30;2.22;;;1.20;;
19889;SDS011;10107;51.198;6.824;2022-10-16T08:47:44;3.35;;;0.80;;
19889;SDS011;10107;51.198;6.824;2022-10-16T08:51:50;1.90;;;1.05;;
19889;SDS011;10107;51.198;6.824;2022-10-16T08:55:52;2.85;;;1.13;;
19889;SDS011;10107;51.198;6.824;2022-10-16T08:59:55;1.05;;;0.85;;
19889;SDS011;10107;51.198;6.824;2022-10-16T09:04:05;2.78;;;1.10;;
19889;SDS011;10107;51.198;6.824;2022-10-16T09:08:25;2.50;;;0.93;;
19889;SDS011;10107;51.198;6.824;2022-10-16T09:12:37;2.00;;;1.08;;
19889;SDS011;10107;51.198;6.824;2022-10-16T09:16:46;1.35;;;0.90;;
19889;SDS011;10107;51.198;6.824;2022-10-16T09:20:58;2.10;;;0.90;;
19889;SDS011;10107;51.198;6.824;2022-10-16T09:25:10;2.25;;;0.73;;
19889;SDS011;10107;51.198;6.824;2022-10-16T09:29:14;3.65;;;1.08;;
19889;SDS011;10107;51.198;6.824;2022-10-16T09:33:20;1.23;;;0.68;;
19889;SDS011;10107;51.198;6.824;2022-10-16T09:37:27;0.70;;;0.60;;
19889;SDS011;10107;51.198;6.824;2022-10-16T09:41:29;1.88;;;0.70;;
19889;SDS011;10107;51.198;6.824;2022-10-16T09:45:31;1.40;;;0.60;;
19889;SDS011;10107;51.198;6.824;2022-10-16T09:49:33;2.00;;;0.57;;
19889;SDS011;10107;51.198;6.824;2022-10-16T09:53:39;1.80;;;0.68;;
19889;SDS011;10107;51.198;6.824;2022-10-16T09:57:48;1.55;;;0.55;;
19889;SDS011;10107;51.198;6.824;2022-10-16T10:01:51;1.85;;;0.40;;
19889;SDS011;10107;51.198;6.824;2022-10-16T10:05:55;1.20;;;0.50;;
19889;SDS011;10107;51.198;6.824;2022-10-16T10:09:59;1.70;;;0.60;;
19889;SDS011;10107;51.198;6.824;2022-10-16T10:14:05;1.23;;;0.57;;
19889;SDS011;10107;51.198;6.824;2022-10-16T10:18:15;2.42;;;0.50;;
19889;SDS011;10107;51.198;6.824;2022-10-16T10:22:22;0.55;;;0.47;;
19889;SDS011;10107;51.198;6.824;2022-10-16T10:26:30;1.63;;;0.50;;
19889;SDS011;10107;51.198;6.824;2022-10-16T10:30:35;1.60;;;0.60;;
19889;SDS011;10107;51.198;6.824;2022-10-16T10:34:51;2.05;;;0.75;;
19889;SDS011;10107;51.198;6.824;2022-10-16T10:39:04;1.45;;;0.50;;
19889;SDS011;10107;51.198;6.824;2022-10-16T10:43:13;2.75;;;0.80;;
19889;SDS011;10107;51.198;6.824;2022-10-16T10:47:25;0.90;;;0.50;;
19889;SDS011;10107;51.198;6.824;2022-10-16T10:51:35;0.82;;;0.40;;
19889;SDS011;10107;51.198;6.824;2022-10-16T10:55:45;3.50;;;0.50;;
19889;SDS011;10107;51.198;6.824;2022-10-16T10:59:56;0.55;;;0.30;;
19889;SDS011;10107;51.198;6.824;2022-10-16T11:04:15;1.90;;;0.50;;
19889;SDS011;10107;51.198;6.824;2022-10-16T11:08:31;1.02;;;0.38;;
19889;SDS011;10107;51.198;6.824;2022-10-16T11:12:37;0.70;;;0.40;;
19889;SDS011;10107;51.198;6.824;2022-10-16T11:16:45;2.35;;;0.60;;
19889;SDS011;10107;51.198;6.824;2022-10-16T11:20:53;1.35;;;0.45;;
19889;SDS011;10107;51.198;6.824;2022-10-16T11:25:00;0.77;;;0.55;;
19889;SDS011;10107;51.198;6.824;2022-10-16T11:29:07;1.10;;;0.57;;
19889;SDS011;10107;51.198;6.824;2022-10-16T11:33:22;0.60;;;0.40;;
19889;SDS011;10107;51.198;6.824;2022-10-16T11:37:32;1.80;;;0.60;;
19889;SDS011;10107;51.198;6.824;2022-10-16T11:41:41;2.13;;;0.60;;
19889;SDS011;10107;51.198;6.824;2022-10-16T11:45:48;1.75;;;0.50;;
19889;SDS011;10107;51.198;6.824;2022-10-16T11:49:55;2.15;;;0.73;;
19889;SDS011;10107;51.198;6.824;2022-10-16T11:54:02;0.55;;;0.40;;
19889;SDS011;10107;51.198;6.824;2022-10-16T11:58:09;1.13;;;0.47;;
19889;SDS011;10107;51.198;6.824;2022-10-16T12:02:26;2.00;;;0.57;;
19889;SDS011;10107;51.198;6.824;2022-10-16T12:06:43;1.25;;;0.50;;
19889;SDS011;10107;51.198;6.824;2022-10-16T12:11:05;1.33;;;0.50;;
19889;SDS011;10107;51.198;6.824;2022-10-16T12:15:21;1.27;;;0.60;;
19889;SDS011;10107;51.198;6.824;2022-10-16T12:19:26;0.90;;;0.50;;
19889;SDS011;10107;51.198;6.824;2022-10-16T12:23:32;0.77;;;0.50;;
19889;SDS011;10107;51.198;6.824;2022-10-16T12:27:41;1.55;;;0.65;;
19889;SDS011;10107;51.198;6.824;2022-10-16T12:31:46;1.55;;;0.77;;
19889;SDS011;10107;51.198;6.824;2022-10-16T12:35:49;1.05;;;0.50;;
19889;SDS011;10107;51.198;6.824;2022-10-16T12:39:53;0.85;;;0.50;;
19889;SDS011;10107;51.198;6.824;2022-10-16T12:43:59;1.88;;;0.50;;
19889;SDS011;10107;51.198;6.824;2022-10-16T12:48:03;0.85;;;0.40;;
19889;SDS011;10107;51.198;6.824;2022-10-16T12:52:26;1.20;;;0.75;;
19889;SDS011;10107;51.198;6.824;2022-10-16T12:56:35;1.98;;;0.68;;
19889;SDS011;10107;51.198;6.824;2022-10-16T13:00:45;2.83;;;1.30;;
19889;SDS011;10107;51.198;6.824;2022-10-16T13:05:08;2.10;;;0.82;;
19889;SDS011;10107;51.198;6.824;2022-10-16T13:09:28;1.13;;;0.50;;
19889;SDS011;10107;51.198;6.824;2022-10-16T13:18:13;1.45;;;0.60;;
19889;SDS011;10107;51.198;6.824;2022-10-16T13:22:18;2.08;;;0.70;;
19889;SDS011;10107;51.198;6.824;2022-10-16T13:26:29;1.58;;;0.70;;
19889;SDS011;10107;51.198;6.824;2022-10-16T13:30:39;2.38;;;0.80;;
19889;SDS011;10107;51.198;6.824;2022-10-16T13:34:43;2.38;;;0.80;;
19889;SDS011;10107;51.198;6.824;2022-10-16T13:38:46;1.50;;;0.98;;
19889;SDS011;10107;51.198;6.824;2022-10-16T13:42:49;0.73;;;0.70;;
19889;SDS011;10107;51.198;6.824;2022-10-16T13:46:59;0.88;;;0.70;;
19889;SDS011;10107;51.198;6.824;2022-10-16T13:51:03;1.90;;;0.80;;
19889;SDS011;10107;51.198;6.824;2022-10-16T13:55:10;1.85;;;0.70;;
19889;SDS011;10107;51.198;6.824;2022-10-16T13:59:22;0.50;;;0.40;;
19889;SDS011;10107;51.198;6.824;2022-10-16T14:03:26;1.50;;;0.70;;
19889;SDS011;10107;51.198;6.824;2022-10-16T14:07:29;1.45;;;0.70;;
19889;SDS011;10107;51.198;6.824;2022-10-16T14:11:32;1.35;;;0.60;;
19889;SDS011;10107;51.198;6.824;2022-10-16T14:15:37;0.73;;;0.60;;
19889;SDS011;10107;51.198;6.824;2022-10-16T14:19:45;0.77;;;0.50;;
19889;SDS011;10107;51.198;6.824;2022-10-16T14:23:47;0.93;;;0.73;;
19889;SDS011;10107;51.198;6.824;2022-10-16T14:27:56;0.68;;;0.60;;
19889;SDS011;10107;51.198;6.824;2022-10-16T14:32:00;1.25;;;0.70;;
19889;SDS011;10107;51.198;6.824;2022-10-16T14:36:04;1.52;;;0.52;;
19889;SDS011;10107;51.198;6.824;2022-10-16T14:40:13;0.77;;;0.50;;
19889;SDS011;10107;51.198;6.824;2022-10-16T14:44:16;0.80;;;0.60;;
19889;SDS011;10107;51.198;6.824;2022-10-16T14:48:19;1.05;;;0.50;;
19889;SDS011;10107;51.198;6.824;2022-10-16T14:52:23;1.20;;;0.63;;
19889;SDS011;10107;51.198;6.824;2022-10-16T14:56:25;1.53;;;0.70;;
19889;SDS011;10107;51.198;6.824;2022-10-16T15:00:31;0.82;;;0.75;;
19889;SDS011;10107;51.198;6.824;2022-10-16T15:04:33;1.67;;;1.00;;
19889;SDS011;10107;51.198;6.824;2022-10-16T15:08:36;0.95;;;0.70;;
19889;SDS011;10107;51.198;6.824;2022-10-16T15:12:37;0.77;;;0.60;;
19889;SDS011;10107;51.198;6.824;2022-10-16T15:16:39;0.90;;;0.60;;
19889;SDS011;10107;51.198;6.824;2022-10-16T15:20:41;0.80;;;0.70;;
19889;SDS011;10107;51.198;6.824;2022-10-16T15:24:44;1.02;;;0.65;;
19889;SDS011;10107;51.198;6.824;2022-10-16T15:28:45;1.60;;;0.60;;
19889;SDS011;10107;51.198;6.824;2022-10-16T15:32:47;0.77;;;0.60;;
19889;SDS011;10107;51.198;6.824;2022-10-16T15:36:48;1.02;;;0.77;;
19889;SDS011;10107;51.198;6.824;2022-10-16T15:40:51;1.02;;;0.70;;
19889;SDS011;10107;51.198;6.824;2022-10-16T15:44:53;1.50;;;0.90;;
19889;SDS011;10107;51.198;6.824;2022-10-16T15:48:55;1.95;;;0.90;;
19889;SDS011;10107;51.198;6.824;2022-10-16T15:57:01;2.05;;;1.00;;
19889;SDS011;10107;51.198;6.824;2022-10-16T16:01:03;1.87;;;1.03;;
19889;SDS011;10107;51.198;6.824;2022-10-16T16:05:06;1.48;;;0.90;;
19889;SDS011;10107;51.198;6.824;2022-10-16T16:09:09;2.38;;;1.05;;
19889;SDS011;10107;51.198;6.824;2022-10-16T16:13:12;1.98;;;1.15;;
19889;SDS011;10107;51.198;6.824;2022-10-16T16:17:13;2.03;;;1.20;;
19889;SDS011;10107;51.198;6.824;2022-10-16T16:21:15;1.98;;;1.50;;
19889;SDS011;10107;51.198;6.824;2022-10-16T16:25:17;3.40;;;2.08;;
19889;SDS011;10107;51.198;6.824;2022-10-16T16:29:20;3.55;;;1.70;;
19889;SDS011;10107;51.198;6.824;2022-10-16T16:33:22;2.00;;;1.70;;
19889;SDS011;10107;51.198;6.824;2022-10-16T16:37:24;2.67;;;1.50;;
19889;SDS011;10107;51.198;6.824;2022-10-16T16:41:26;2.28;;;1.40;;
19889;SDS011;10107;51.198;6.824;2022-10-16T16:45:31;2.97;;;1.90;;
19889;SDS011;10107;51.198;6.824;2022-10-16T16:49:36;1.92;;;1.65;;
19889;SDS011;10107;51.198;6.824;2022-10-16T16:53:38;2.42;;;1.50;;
19889;SDS011;10107;51.198;6.824;2022-10-16T16:57:39;1.90;;;1.40;;
19889;SDS011;10107;51.198;6.824;2022-10-16T17:01:42;2.20;;;1.50;;
19889;SDS011;10107;51.198;6.824;2022-10-16T17:05:54;4.10;;;1.52;;
19889;SDS011;10107;51.198;6.824;2022-10-16T17:09:56;2.85;;;1.25;;
19889;SDS011;10107;51.198;6.824;2022-10-16T17:13:58;1.50;;;1.30;;
19889;SDS011;10107;51.198;6.824;2022-10-16T17:18:02;2.67;;;1.70;;
19889;SDS011;10107;51.198;6.824;2022-10-16T17:22:04;3.08;;;1.58;;
19889;SDS011;10107;51.198;6.824;2022-10-16T17:26:06;2.88;;;1.30;;
19889;SDS011;10107;51.198;6.824;2022-10-16T17:34:12;1.40;;;1.27;;
19889;SDS011;10107;51.198;6.824;2022-10-16T17:38:14;1.50;;;1.40;;
19889;SDS011;10107;51.198;6.824;2022-10-16T17:42:15;1.60;;;1.40;;
19889;SDS011;10107;51.198;6.824;2022-10-16T17:46:18;1.75;;;1.40;;
19889;SDS011;10107;51.198;6.824;2022-10-16T17:50:23;3.00;;;1.70;;
19889;SDS011;10107;51.198;6.824;2022-10-16T17:54:25;2.33;;;1.33;;
19889;SDS011;10107;51.198;6.824;2022-10-16T17:58:28;1.75;;;1.38;;
19889;SDS011;10107;51.198;6.824;2022-10-16T18:02:32;1.63;;;1.52;;
19889;SDS011;10107;51.198;6.824;2022-10-16T18:06:36;2.00;;;1.60;;
19889;SDS011;10107;51.198;6.824;2022-10-16T18:10:43;3.20;;;1.85;;
19889;SDS011;10107;51.198;6.824;2022-10-16T18:14:46;2.97;;;1.48;;
19889;SDS011;10107;51.198;6.824;2022-10-16T18:18:48;2.13;;;1.70;;
19889;SDS011;10107;51.198;6.824;2022-10-16T18:22:51;2.53;;;1.52;;
19889;SDS011;10107;51.198;6.824;2022-10-16T18:26:54;3.05;;;1.52;;
19889;SDS011;10107;51.198;6.824;2022-10-16T18:30:57;1.50;;;1.40;;
19889;SDS011;10107;51.198;6.824;2022-10-16T18:35:01;3.78;;;1.70;;
19889;SDS011;10107;51.198;6.824;2022-10-16T18:39:05;1.90;;;1.50;;
19889;SDS011;10107;51.198;6.824;2022-10-16T18:43:08;1.98;;;1.60;;
19889;SDS011;10107;51.198;6.824;2022-10-16T18:47:10;2.75;;;1.50;;
19889;SDS011;10107;51.198;6.824;2022-10-16T18:51:12;1.80;;;1.52;;
19889;SDS011;10107;51.198;6.824;2022-10-16T18:55:19;3.55;;;1.40;;
19889;SDS011;10107;51.198;6.824;2022-10-16T18:59:22;2.33;;;1.75;;
19889;SDS011;10107;51.198;6.824;2022-10-16T19:03:25;2.00;;;1.50;;
19889;SDS011;10107;51.198;6.824;2022-10-16T19:07:27;3.03;;;1.77;;
19889;SDS011;10107;51.198;6.824;2022-10-16T19:11:30;2.65;;;1.40;;
19889;SDS011;10107;51.198;6.824;2022-10-16T19:15:32;2.53;;;1.60;;
19889;SDS011;10107;51.198;6.824;2022-10-16T19:19:34;1.98;;;1.70;;
19889;SDS011;10107;51.198;6.824;2022-10-16T19:23:37;2.00;;;1.60;;
19889;SDS011;10107;51.198;6.824;2022-10-16T19:27:41;2.03;;;1.73;;
19889;SDS011;10107;51.198;6.824;2022-10-16T19:31:43;1.67;;;1.33;;
19889;SDS011;10107;51.198;6.824;2022-10-16T19:35:45;2.08;;;1.70;;
19889;SDS011;10107;51.198;6.824;2022-10-16T19:39:48;1.80;;;1.42;;
19889;SDS011;10107;51.198;6.824;2022-10-16T19:43:51;1.90;;;1.17;;
19889;SDS011;10107;51.198;6.824;2022-10-16T19:47:55;1.90;;;1.58;;
19889;SDS011;10107;51.198;6.824;2022-10-16T19:51:57;1.92;;;1.55;;
19889;SDS011;10107;51.198;6.824;2022-10-16T19:55:59;3.10;;;1.92;;
19889;SDS011;10107;51.198;6.824;2022-10-16T20:00:02;2.40;;;1.95;;
19889;SDS011;10107;51.198;6.824;2022-10-16T20:04:07;2.78;;;1.95;;
19889;SDS011;10107;51.198;6.824;2022-10-16T20:08:09;3.10;;;2.05;;
19889;SDS011;10107;51.198;6.824;2022-10-16T20:12:11;2.58;;;2.25;;
19889;SDS011;10107;51.198;6.824;2022-10-16T20:16:14;3.42;;;3.00;;
19889;SDS011;10107;51.198;6.824;2022-10-16T20:20:18;2.88;;;2.40;;
19889;SDS011;10107;51.198;6.824;2022-10-16T20:24:20;2.90;;;2.55;;
19889;SDS011;10107;51.198;6.824;2022-10-16T20:28:21;2.83;;;2.30;;
19889;SDS011;10107;51.198;6.824;2022-10-16T20:32:25;3.60;;;2.55;;
19889;SDS011;10107;51.198;6.824;2022-10-16T20:36:27;2.90;;;2.53;;
19889;SDS011;10107;51.198;6.824;2022-10-16T20:40:30;5.13;;;2.80;;
19889;SDS011;10107;51.198;6.824;2022-10-16T20:44:34;2.72;;;2.42;;
19889;SDS011;10107;51.198;6.824;2022-10-16T20:48:37;3.30;;;2.70;;
19889;SDS011;10107;51.198;6.824;2022-10-16T20:52:43;2.78;;;2.38;;
19889;SDS011;10107;51.198;6.824;2022-10-16T20:56:44;2.30;;;2.10;;
19889;SDS011;10107;51.198;6.824;2022-10-16T21:00:47;2.30;;;2.10;;
19889;SDS011;10107;51.198;6.824;2022-10-16T21:04:50;2.55;;;2.20;;
19889;SDS011;10107;51.198;6.824;2022-10-16T21:08:52;3.05;;;2.40;;
19889;SDS011;10107;51.198;6.824;2022-10-16T21:12:54;2.75;;;2.40;;
19889;SDS011;10107;51.198;6.824;2022-10-16T21:16:56;3.85;;;3.00;;
19889;SDS011;10107;51.198;6.824;2022-10-16T21:20:59;4.15;;;2.60;;
19889;SDS011;10107;51.198;6.824;2022-10-16T21:25:01;2.80;;;2.22;;
19889;SDS011;10107;51.198;6.824;2022-10-16T21:29:04;2.50;;;1.88;;
19889;SDS011;10107;51.198;6.824;2022-10-16T21:33:07;3.10;;;2.30;;
19889;SDS011;10107;51.198;6.824;2022-10-16T21:37:10;2.83;;;2.20;;
19889;SDS011;10107;51.198;6.824;2022-10-16T21:41:16;3.50;;;2.88;;
19889;SDS011;10107;51.198;6.824;2022-10-16T21:45:19;2.85;;;2.20;;
19889;SDS011;10107;51.198;6.824;2022-10-16T21:49:21;2.65;;;2.30;;
19889;SDS011;10107;51.198;6.824;2022-10-16T21:53:24;2.97;;;2.53;;
19889;SDS011;10107;51.198;6.824;2022-10-16T21:57:25;3.03;;;2.63;;
19889;SDS011;10107;51.198;6.824;2022-10-16T22:01:27;3.70;;;2.65;;
19889;SDS011;10107;51.198;6.824;2022-10-16T22:05:29;3.25;;;2.95;;
19889;SDS011;10107;51.198;6.824;2022-10-16T22:09:35;4.07;;;3.30;;
19889;SDS011;10107;51.198;6.824;2022-10-16T22:13:37;4.30;;;2.87;;
19889;SDS011;10107;51.198;6.824;2022-10-16T22:17:39;4.60;;;3.13;;
19889;SDS011;10107;51.198;6.824;2022-10-16T22:21:41;4.78;;;2.90;;
19889;SDS011;10107;51.198;6.824;2022-10-16T22:25:46;2.90;;;2.47;;
19889;SDS011;10107;51.198;6.824;2022-10-16T22:29:49;3.53;;;2.72;;
19889;SDS011;10107;51.198;6.824;2022-10-16T22:33:54;3.13;;;2.30;;
19889;SDS011;10107;51.198;6.824;2022-10-16T22:37:57;4.40;;;3.22;;
19889;SDS011;10107;51.198;6.824;2022-10-16T22:42:00;4.05;;;3.58;;
19889;SDS011;10107;51.198;6.824;2022-10-16T22:46:03;3.90;;;3.30;;
19889;SDS011;10107;51.198;6.824;2022-10-16T22:50:05;5.07;;;3.97;;
19889;SDS011;10107;51.198;6.824;2022-10-16T22:54:07;5.22;;;4.45;;
19889;SDS011;10107;51.198;6.824;2022-10-16T22:58:10;4.88;;;4.13;;
19889;SDS011;10107;51.198;6.824;2022-10-16T23:02:12;6.07;;;4.10;;
19889;SDS011;10107;51.198;6.824;2022-10-16T23:06:13;5.95;;;4.28;;
19889;SDS011;10107;51.198;6.824;2022-10-16T23:10:15;5.32;;;4.20;;
19889;SDS011;10107;51.198;6.824;2022-10-16T23:14:20;4.05;;;3.33;;
19889;SDS011;10107;51.198;6.824;2022-10-16T23:18:21;5.15;;;4.63;;
19889;SDS011;10107;51.198;6.824;2022-10-16T23:22:23;5.15;;;4.47;;
19889;SDS011;10107;51.198;6.824;2022-10-16T23:26:25;5.40;;;4.88;;
19889;SDS011;10107;51.198;6.824;2022-10-16T23:30:29;7.80;;;5.45;;
19889;SDS011;10107;51.198;6.824;2022-10-16T23:34:31;7.35;;;5.47;;
19889;SDS011;10107;51.198;6.824;2022-10-16T23:38:33;11.05;;;5.97;;
19889;SDS011;10107;51.198;6.824;2022-10-16T23:42:34;6.80;;;5.85;;
19889;SDS011;10107;51.198;6.824;2022-10-16T23:46:39;5.50;;;4.63;;
19889;SDS011;10107;51.198;6.824;2022-10-16T23:50:40;8.50;;;6.00;;
19889;SDS011;10107;51.198;6.824;2022-10-16T23:54:42;10.07;;;6.40;;
19889;SDS011;10107;51.198;6.824;2022-10-16T23:58:44;6.50;;;5.60;;
